sensor_id;sensor_type;location;lat;lon;timestamp;P1;durP1;ratioP1;P2;durP2;ratioP2
5355;SDS011;70449;52.486;13.386;2023-11-19T00:00:13;9.03;;;6.67;;
5355;SDS011;70449;52.486;13.386;2023-11-19T00:02:43;10.00;;;6.17;;
5355;SDS011;70449;52.486;13.386;2023-11-19T00:05:11;9.17;;;6.30;;
5355;SDS011;70449;52.486;13.386;2023-11-19T00:07:40;12.97;;;8.40;;
5355;SDS011;70449;52.486;13.386;2023-11-19T00:10:08;17.37;;;10.73;;
5355;SDS011;70449;52.486;13.386;2023-11-19T00:12:37;19.00;;;12.70;;
5355;SDS011;70449;52.486;13.386;2023-11-19T00:15:05;44.17;;;18.67;;
5355;SDS011;70449;52.486;13.386;2023-11-19T00:17:36;28.77;;;13.37;;
5355;SDS011;70449;52.486;13.386;2023-11-19T00:20:07;16.93;;;9.87;;
5355;SDS011;70449;52.486;13.386;2023-11-19T00:22:35;28.60;;;9.13;;
5355;SDS011;70449;52.486;13.386;2023-11-19T00:25:05;10.80;;;7.40;;
5355;SDS011;70449;52.486;13.386;2023-11-19T00:27:33;17.30;;;6.57;;
5355;SDS011;70449;52.486;13.386;2023-11-19T00:30:01;13.90;;;7.47;;
5355;SDS011;70449;52.486;13.386;2023-11-19T00:32:30;9.17;;;6.83;;
5355;SDS011;70449;52.486;13.386;2023-11-19T00:34:58;9.67;;;6.60;;
5355;SDS011;70449;52.486;13.386;2023-11-19T00:37:26;13.00;;;6.17;;
5355;SDS011;70449;52.486;13.386;2023-11-19T00:39:53;10.67;;;6.77;;
5355;SDS011;70449;52.486;13.386;2023-11-19T00:42:25;9.93;;;6.67;;
5355;SDS011;70449;52.486;13.386;2023-11-19T00:44:52;9.77;;;6.70;;
5355;SDS011;70449;52.486;13.386;2023-11-19T00:47:20;10.67;;;6.60;;
5355;SDS011;70449;52.486;13.386;2023-11-19T00:49:47;11.77;;;5.73;;
5355;SDS011;70449;52.486;13.386;2023-11-19T00:52:15;10.80;;;6.10;;
5355;SDS011;70449;52.486;13.386;2023-11-19T00:54:43;7.80;;;5.70;;
5355;SDS011;70449;52.486;13.386;2023-11-19T00:57:10;9.60;;;5.70;;
5355;SDS011;70449;52.486;13.386;2023-11-19T00:59:39;9.77;;;6.00;;
5355;SDS011;70449;52.486;13.386;2023-11-19T01:02:08;10.07;;;6.27;;
5355;SDS011;70449;52.486;13.386;2023-11-19T01:04:35;11.10;;;6.80;;
5355;SDS011;70449;52.486;13.386;2023-11-19T01:07:03;8.60;;;5.93;;
5355;SDS011;70449;52.486;13.386;2023-11-19T01:09:32;7.70;;;5.33;;
5355;SDS011;70449;52.486;13.386;2023-11-19T01:11:59;14.00;;;6.40;;
5355;SDS011;70449;52.486;13.386;2023-11-19T01:14:29;7.70;;;6.10;;
5355;SDS011;70449;52.486;13.386;2023-11-19T01:16:58;15.23;;;7.00;;
5355;SDS011;70449;52.486;13.386;2023-11-19T01:19:25;8.87;;;5.77;;
5355;SDS011;70449;52.486;13.386;2023-11-19T01:21:53;7.73;;;5.90;;
5355;SDS011;70449;52.486;13.386;2023-11-19T01:24:21;8.27;;;6.30;;
5355;SDS011;70449;52.486;13.386;2023-11-19T01:26:48;9.10;;;5.63;;
5355;SDS011;70449;52.486;13.386;2023-11-19T01:29:16;9.97;;;6.57;;
5355;SDS011;70449;52.486;13.386;2023-11-19T01:31:45;8.27;;;5.77;;
5355;SDS011;70449;52.486;13.386;2023-11-19T01:34:14;11.90;;;6.30;;
5355;SDS011;70449;52.486;13.386;2023-11-19T01:36:42;7.40;;;5.23;;
5355;SDS011;70449;52.486;13.386;2023-11-19T01:39:11;8.40;;;5.30;;
5355;SDS011;70449;52.486;13.386;2023-11-19T01:41:41;11.17;;;6.07;;
5355;SDS011;70449;52.486;13.386;2023-11-19T01:44:08;6.93;;;5.30;;
5355;SDS011;70449;52.486;13.386;2023-11-19T01:46:37;6.83;;;5.23;;
5355;SDS011;70449;52.486;13.386;2023-11-19T01:49:06;10.00;;;5.37;;
5355;SDS011;70449;52.486;13.386;2023-11-19T01:51:36;10.30;;;5.10;;
5355;SDS011;70449;52.486;13.386;2023-11-19T01:54:04;5.70;;;5.00;;
5355;SDS011;70449;52.486;13.386;2023-11-19T01:56:33;6.40;;;4.90;;
5355;SDS011;70449;52.486;13.386;2023-11-19T01:59:01;7.30;;;5.93;;
5355;SDS011;70449;52.486;13.386;2023-11-19T02:01:29;5.90;;;5.40;;
5355;SDS011;70449;52.486;13.386;2023-11-19T02:03:59;8.83;;;5.70;;
5355;SDS011;70449;52.486;13.386;2023-11-19T02:06:27;10.50;;;5.97;;
5355;SDS011;70449;52.486;13.386;2023-11-19T02:08:58;10.37;;;6.30;;
5355;SDS011;70449;52.486;13.386;2023-11-19T02:11:25;7.07;;;5.30;;
5355;SDS011;70449;52.486;13.386;2023-11-19T02:13:54;11.43;;;5.10;;
5355;SDS011;70449;52.486;13.386;2023-11-19T02:16:21;11.87;;;6.70;;
5355;SDS011;70449;52.486;13.386;2023-11-19T02:18:49;9.33;;;5.30;;
5355;SDS011;70449;52.486;13.386;2023-11-19T02:21:16;7.67;;;5.83;;
5355;SDS011;70449;52.486;13.386;2023-11-19T02:23:43;6.67;;;5.50;;
5355;SDS011;70449;52.486;13.386;2023-11-19T02:26:14;11.30;;;5.77;;
5355;SDS011;70449;52.486;13.386;2023-11-19T02:28:52;7.73;;;5.20;;
5355;SDS011;70449;52.486;13.386;2023-11-19T02:31:20;12.80;;;5.40;;
5355;SDS011;70449;52.486;13.386;2023-11-19T02:33:48;8.60;;;5.73;;
5355;SDS011;70449;52.486;13.386;2023-11-19T02:36:15;10.30;;;5.27;;
5355;SDS011;70449;52.486;13.386;2023-11-19T02:38:46;5.83;;;4.87;;
5355;SDS011;70449;52.486;13.386;2023-11-19T02:41:14;7.33;;;5.60;;
5355;SDS011;70449;52.486;13.386;2023-11-19T02:43:41;8.03;;;5.20;;
5355;SDS011;70449;52.486;13.386;2023-11-19T02:46:10;7.50;;;5.07;;
5355;SDS011;70449;52.486;13.386;2023-11-19T02:48:37;6.43;;;5.17;;
5355;SDS011;70449;52.486;13.386;2023-11-19T02:51:04;5.70;;;4.40;;
5355;SDS011;70449;52.486;13.386;2023-11-19T02:53:34;7.33;;;4.97;;
5355;SDS011;70449;52.486;13.386;2023-11-19T02:56:02;8.87;;;4.67;;
5355;SDS011;70449;52.486;13.386;2023-11-19T02:58:40;7.67;;;5.00;;
5355;SDS011;70449;52.486;13.386;2023-11-19T03:01:11;7.00;;;4.57;;
5355;SDS011;70449;52.486;13.386;2023-11-19T03:03:48;13.67;;;5.07;;
5355;SDS011;70449;52.486;13.386;2023-11-19T03:06:19;7.10;;;5.20;;
5355;SDS011;70449;52.486;13.386;2023-11-19T03:08:47;7.00;;;5.20;;
5355;SDS011;70449;52.486;13.386;2023-11-19T03:11:15;6.83;;;4.07;;
5355;SDS011;70449;52.486;13.386;2023-11-19T03:13:42;9.80;;;5.30;;
5355;SDS011;70449;52.486;13.386;2023-11-19T03:16:10;6.07;;;5.20;;
5355;SDS011;70449;52.486;13.386;2023-11-19T03:18:38;4.67;;;4.27;;
5355;SDS011;70449;52.486;13.386;2023-11-19T03:21:05;5.70;;;4.07;;
5355;SDS011;70449;52.486;13.386;2023-11-19T03:23:33;4.70;;;4.17;;
5355;SDS011;70449;52.486;13.386;2023-11-19T03:26:01;6.70;;;4.43;;
5355;SDS011;70449;52.486;13.386;2023-11-19T03:28:30;5.50;;;4.63;;
5355;SDS011;70449;52.486;13.386;2023-11-19T03:30:57;8.27;;;4.27;;
5355;SDS011;70449;52.486;13.386;2023-11-19T03:33:27;4.50;;;4.00;;
5355;SDS011;70449;52.486;13.386;2023-11-19T03:35:54;4.73;;;4.23;;
5355;SDS011;70449;52.486;13.386;2023-11-19T03:38:23;5.33;;;4.80;;
5355;SDS011;70449;52.486;13.386;2023-11-19T03:40:50;8.20;;;4.63;;
5355;SDS011;70449;52.486;13.386;2023-11-19T03:43:18;6.30;;;5.30;;
5355;SDS011;70449;52.486;13.386;2023-11-19T03:45:45;8.90;;;5.23;;
5355;SDS011;70449;52.486;13.386;2023-11-19T03:48:13;5.93;;;4.60;;
5355;SDS011;70449;52.486;13.386;2023-11-19T03:50:43;6.30;;;4.87;;
5355;SDS011;70449;52.486;13.386;2023-11-19T03:53:11;8.27;;;5.27;;
5355;SDS011;70449;52.486;13.386;2023-11-19T03:55:38;8.00;;;5.40;;
5355;SDS011;70449;52.486;13.386;2023-11-19T03:58:05;9.50;;;4.63;;
5355;SDS011;70449;52.486;13.386;2023-11-19T04:00:33;7.17;;;4.93;;
5355;SDS011;70449;52.486;13.386;2023-11-19T04:03:00;7.90;;;5.73;;
5355;SDS011;70449;52.486;13.386;2023-11-19T04:05:28;5.90;;;5.30;;
5355;SDS011;70449;52.486;13.386;2023-11-19T04:07:57;8.97;;;5.67;;
5355;SDS011;70449;52.486;13.386;2023-11-19T04:10:25;6.43;;;5.30;;
5355;SDS011;70449;52.486;13.386;2023-11-19T04:12:52;11.90;;;6.40;;
5355;SDS011;70449;52.486;13.386;2023-11-19T04:15:19;8.43;;;6.00;;
5355;SDS011;70449;52.486;13.386;2023-11-19T04:17:47;9.23;;;5.70;;
5355;SDS011;70449;52.486;13.386;2023-11-19T04:20:14;11.53;;;5.93;;
5355;SDS011;70449;52.486;13.386;2023-11-19T04:22:41;7.47;;;5.13;;
5355;SDS011;70449;52.486;13.386;2023-11-19T04:25:10;9.83;;;6.50;;
5355;SDS011;70449;52.486;13.386;2023-11-19T04:27:39;9.43;;;6.30;;
5355;SDS011;70449;52.486;13.386;2023-11-19T04:30:07;10.20;;;6.70;;
5355;SDS011;70449;52.486;13.386;2023-11-19T04:32:36;7.40;;;5.90;;
5355;SDS011;70449;52.486;13.386;2023-11-19T04:35:03;13.60;;;7.40;;
5355;SDS011;70449;52.486;13.386;2023-11-19T04:37:32;9.00;;;5.80;;
5355;SDS011;70449;52.486;13.386;2023-11-19T04:39:59;8.27;;;6.60;;
5355;SDS011;70449;52.486;13.386;2023-11-19T04:42:28;9.40;;;6.23;;
5355;SDS011;70449;52.486;13.386;2023-11-19T04:44:57;9.20;;;6.00;;
5355;SDS011;70449;52.486;13.386;2023-11-19T04:47:24;7.50;;;5.17;;
5355;SDS011;70449;52.486;13.386;2023-11-19T04:49:51;10.03;;;6.53;;
5355;SDS011;70449;52.486;13.386;2023-11-19T04:52:18;9.00;;;5.97;;
5355;SDS011;70449;52.486;13.386;2023-11-19T04:54:45;14.50;;;6.30;;
5355;SDS011;70449;52.486;13.386;2023-11-19T04:57:13;7.20;;;5.87;;
5355;SDS011;70449;52.486;13.386;2023-11-19T04:59:41;12.17;;;6.00;;
5355;SDS011;70449;52.486;13.386;2023-11-19T05:02:09;8.57;;;6.60;;
5355;SDS011;70449;52.486;13.386;2023-11-19T05:04:36;7.33;;;6.20;;
5355;SDS011;70449;52.486;13.386;2023-11-19T05:07:04;13.13;;;6.03;;
5355;SDS011;70449;52.486;13.386;2023-11-19T05:09:32;8.87;;;6.00;;
5355;SDS011;70449;52.486;13.386;2023-11-19T05:12:02;10.67;;;6.17;;
5355;SDS011;70449;52.486;13.386;2023-11-19T05:14:29;12.07;;;6.93;;
5355;SDS011;70449;52.486;13.386;2023-11-19T05:16:58;12.60;;;7.20;;
5355;SDS011;70449;52.486;13.386;2023-11-19T05:19:25;10.37;;;6.53;;
5355;SDS011;70449;52.486;13.386;2023-11-19T05:21:52;7.73;;;6.93;;
5355;SDS011;70449;52.486;13.386;2023-11-19T05:24:19;6.73;;;6.03;;
5355;SDS011;70449;52.486;13.386;2023-11-19T05:26:47;8.40;;;5.93;;
5355;SDS011;70449;52.486;13.386;2023-11-19T05:29:16;11.67;;;6.90;;
5355;SDS011;70449;52.486;13.386;2023-11-19T05:31:43;8.87;;;6.40;;
5355;SDS011;70449;52.486;13.386;2023-11-19T05:34:11;8.17;;;5.90;;
5355;SDS011;70449;52.486;13.386;2023-11-19T05:36:40;7.03;;;5.70;;
5355;SDS011;70449;52.486;13.386;2023-11-19T05:39:07;7.43;;;6.30;;
5355;SDS011;70449;52.486;13.386;2023-11-19T05:41:36;6.30;;;5.63;;
5355;SDS011;70449;52.486;13.386;2023-11-19T05:44:04;8.70;;;6.80;;
5355;SDS011;70449;52.486;13.386;2023-11-19T05:46:31;8.47;;;6.50;;
5355;SDS011;70449;52.486;13.386;2023-11-19T05:48:58;10.07;;;7.07;;
5355;SDS011;70449;52.486;13.386;2023-11-19T05:51:27;7.27;;;6.10;;
5355;SDS011;70449;52.486;13.386;2023-11-19T05:53:54;13.40;;;6.53;;
5355;SDS011;70449;52.486;13.386;2023-11-19T05:56:22;7.60;;;6.50;;
5355;SDS011;70449;52.486;13.386;2023-11-19T05:58:51;10.40;;;5.70;;
5355;SDS011;70449;52.486;13.386;2023-11-19T06:01:21;8.17;;;6.53;;
5355;SDS011;70449;52.486;13.386;2023-11-19T06:03:48;8.80;;;5.90;;
5355;SDS011;70449;52.486;13.386;2023-11-19T06:06:18;7.50;;;6.60;;
5355;SDS011;70449;52.486;13.386;2023-11-19T06:08:47;8.40;;;6.23;;
5355;SDS011;70449;52.486;13.386;2023-11-19T06:11:15;8.40;;;6.03;;
5355;SDS011;70449;52.486;13.386;2023-11-19T06:13:45;10.47;;;7.47;;
5355;SDS011;70449;52.486;13.386;2023-11-19T06:16:16;9.93;;;6.47;;
5355;SDS011;70449;52.486;13.386;2023-11-19T06:18:43;12.33;;;6.43;;
5355;SDS011;70449;52.486;13.386;2023-11-19T06:21:10;8.00;;;5.90;;
5355;SDS011;70449;52.486;13.386;2023-11-19T06:23:38;7.40;;;6.00;;
5355;SDS011;70449;52.486;13.386;2023-11-19T06:26:06;10.30;;;7.00;;
5355;SDS011;70449;52.486;13.386;2023-11-19T06:28:34;9.13;;;6.63;;
5355;SDS011;70449;52.486;13.386;2023-11-19T06:31:01;8.57;;;5.60;;
5355;SDS011;70449;52.486;13.386;2023-11-19T06:33:32;7.00;;;6.17;;
5355;SDS011;70449;52.486;13.386;2023-11-19T06:35:59;7.37;;;5.60;;
5355;SDS011;70449;52.486;13.386;2023-11-19T06:38:26;8.97;;;6.87;;
5355;SDS011;70449;52.486;13.386;2023-11-19T06:40:54;7.47;;;5.67;;
5355;SDS011;70449;52.486;13.386;2023-11-19T06:43:22;8.30;;;5.77;;
5355;SDS011;70449;52.486;13.386;2023-11-19T06:45:50;7.57;;;5.80;;
5355;SDS011;70449;52.486;13.386;2023-11-19T06:48:18;6.13;;;5.50;;
5355;SDS011;70449;52.486;13.386;2023-11-19T06:50:45;8.47;;;5.80;;
5355;SDS011;70449;52.486;13.386;2023-11-19T06:53:13;7.80;;;5.70;;
5355;SDS011;70449;52.486;13.386;2023-11-19T06:55:40;6.27;;;5.33;;
5355;SDS011;70449;52.486;13.386;2023-11-19T06:58:08;7.20;;;5.80;;
5355;SDS011;70449;52.486;13.386;2023-11-19T07:00:36;6.77;;;5.60;;
5355;SDS011;70449;52.486;13.386;2023-11-19T07:03:03;9.97;;;5.30;;
5355;SDS011;70449;52.486;13.386;2023-11-19T07:05:35;6.17;;;4.43;;
5355;SDS011;70449;52.486;13.386;2023-11-19T07:08:04;6.03;;;4.60;;
5355;SDS011;70449;52.486;13.386;2023-11-19T07:10:36;10.70;;;5.33;;
5355;SDS011;70449;52.486;13.386;2023-11-19T07:13:03;4.77;;;4.27;;
5355;SDS011;70449;52.486;13.386;2023-11-19T07:15:31;6.03;;;5.43;;
5355;SDS011;70449;52.486;13.386;2023-11-19T07:18:00;9.03;;;5.10;;
5355;SDS011;70449;52.486;13.386;2023-11-19T07:20:27;7.20;;;5.57;;
5355;SDS011;70449;52.486;13.386;2023-11-19T07:22:54;6.37;;;5.13;;
5355;SDS011;70449;52.486;13.386;2023-11-19T07:25:22;5.87;;;5.13;;
5355;SDS011;70449;52.486;13.386;2023-11-19T07:27:51;7.93;;;5.03;;
5355;SDS011;70449;52.486;13.386;2023-11-19T07:30:18;7.63;;;5.70;;
5355;SDS011;70449;52.486;13.386;2023-11-19T07:32:46;8.13;;;4.73;;
5355;SDS011;70449;52.486;13.386;2023-11-19T07:35:15;5.17;;;4.67;;
5355;SDS011;70449;52.486;13.386;2023-11-19T07:37:43;5.30;;;4.80;;
5355;SDS011;70449;52.486;13.386;2023-11-19T07:40:13;7.03;;;4.60;;
5355;SDS011;70449;52.486;13.386;2023-11-19T07:42:40;5.30;;;4.17;;
5355;SDS011;70449;52.486;13.386;2023-11-19T07:45:08;5.50;;;4.70;;
5355;SDS011;70449;52.486;13.386;2023-11-19T07:47:36;4.90;;;4.50;;
5355;SDS011;70449;52.486;13.386;2023-11-19T07:50:03;4.50;;;4.07;;
5355;SDS011;70449;52.486;13.386;2023-11-19T07:52:33;8.10;;;4.80;;
5355;SDS011;70449;52.486;13.386;2023-11-19T07:55:01;6.40;;;4.57;;
5355;SDS011;70449;52.486;13.386;2023-11-19T07:57:28;7.30;;;4.90;;
5355;SDS011;70449;52.486;13.386;2023-11-19T07:59:56;6.23;;;5.33;;
5355;SDS011;70449;52.486;13.386;2023-11-19T08:02:24;6.50;;;4.90;;
5355;SDS011;70449;52.486;13.386;2023-11-19T08:04:51;5.00;;;4.40;;
5355;SDS011;70449;52.486;13.386;2023-11-19T08:07:20;9.03;;;5.60;;
5355;SDS011;70449;52.486;13.386;2023-11-19T08:09:48;9.97;;;5.50;;
5355;SDS011;70449;52.486;13.386;2023-11-19T08:12:16;6.43;;;5.30;;
5355;SDS011;70449;52.486;13.386;2023-11-19T08:14:43;5.03;;;4.50;;
5355;SDS011;70449;52.486;13.386;2023-11-19T08:17:16;5.40;;;4.90;;
5355;SDS011;70449;52.486;13.386;2023-11-19T08:19:43;6.33;;;5.70;;
5355;SDS011;70449;52.486;13.386;2023-11-19T08:22:11;6.90;;;5.00;;
5355;SDS011;70449;52.486;13.386;2023-11-19T08:24:38;5.67;;;5.07;;
5355;SDS011;70449;52.486;13.386;2023-11-19T08:27:07;5.27;;;4.77;;
5355;SDS011;70449;52.486;13.386;2023-11-19T08:29:34;6.20;;;5.00;;
5355;SDS011;70449;52.486;13.386;2023-11-19T08:32:02;5.90;;;5.20;;
5355;SDS011;70449;52.486;13.386;2023-11-19T08:34:30;4.90;;;4.17;;
5355;SDS011;70449;52.486;13.386;2023-11-19T08:36:57;11.43;;;5.90;;
5355;SDS011;70449;52.486;13.386;2023-11-19T08:39:25;21.97;;;5.53;;
5355;SDS011;70449;52.486;13.386;2023-11-19T08:41:52;6.70;;;4.90;;
5355;SDS011;70449;52.486;13.386;2023-11-19T08:44:23;5.33;;;4.80;;
5355;SDS011;70449;52.486;13.386;2023-11-19T08:46:50;11.50;;;5.07;;
5355;SDS011;70449;52.486;13.386;2023-11-19T08:49:17;7.53;;;5.80;;
5355;SDS011;70449;52.486;13.386;2023-11-19T08:51:44;5.13;;;4.60;;
5355;SDS011;70449;52.486;13.386;2023-11-19T08:54:12;6.57;;;5.00;;
5355;SDS011;70449;52.486;13.386;2023-11-19T08:56:39;7.17;;;5.40;;
5355;SDS011;70449;52.486;13.386;2023-11-19T08:59:06;6.27;;;5.27;;
5355;SDS011;70449;52.486;13.386;2023-11-19T09:01:35;10.43;;;4.73;;
5355;SDS011;70449;52.486;13.386;2023-11-19T09:04:03;6.23;;;5.00;;
5355;SDS011;70449;52.486;13.386;2023-11-19T09:06:31;7.13;;;5.23;;
5355;SDS011;70449;52.486;13.386;2023-11-19T09:08:58;7.50;;;5.50;;
5355;SDS011;70449;52.486;13.386;2023-11-19T09:11:27;7.53;;;5.23;;
5355;SDS011;70449;52.486;13.386;2023-11-19T09:13:55;8.57;;;4.50;;
5355;SDS011;70449;52.486;13.386;2023-11-19T09:16:22;4.93;;;4.27;;
5355;SDS011;70449;52.486;13.386;2023-11-19T09:18:51;5.27;;;4.37;;
5355;SDS011;70449;52.486;13.386;2023-11-19T09:21:18;4.40;;;4.00;;
5355;SDS011;70449;52.486;13.386;2023-11-19T09:23:46;5.70;;;4.23;;
5355;SDS011;70449;52.486;13.386;2023-11-19T09:26:14;9.60;;;3.67;;
5355;SDS011;70449;52.486;13.386;2023-11-19T09:28:41;6.30;;;4.47;;
5355;SDS011;70449;52.486;13.386;2023-11-19T09:31:15;4.13;;;3.73;;
5355;SDS011;70449;52.486;13.386;2023-11-19T09:33:43;5.37;;;4.37;;
5355;SDS011;70449;52.486;13.386;2023-11-19T09:36:13;4.70;;;3.47;;
5355;SDS011;70449;52.486;13.386;2023-11-19T09:38:41;5.80;;;3.00;;
5355;SDS011;70449;52.486;13.386;2023-11-19T09:41:09;4.47;;;3.90;;
5355;SDS011;70449;52.486;13.386;2023-11-19T09:43:38;5.27;;;4.60;;
5355;SDS011;70449;52.486;13.386;2023-11-19T09:46:06;4.73;;;3.60;;
5355;SDS011;70449;52.486;13.386;2023-11-19T09:48:37;5.10;;;4.60;;
5355;SDS011;70449;52.486;13.386;2023-11-19T09:51:05;18.77;;;4.70;;
5355;SDS011;70449;52.486;13.386;2023-11-19T09:53:35;7.27;;;3.60;;
5355;SDS011;70449;52.486;13.386;2023-11-19T09:56:04;4.03;;;3.10;;
5355;SDS011;70449;52.486;13.386;2023-11-19T09:58:33;4.83;;;3.40;;
5355;SDS011;70449;52.486;13.386;2023-11-19T10:01:00;9.20;;;4.40;;
5355;SDS011;70449;52.486;13.386;2023-11-19T10:03:32;10.53;;;3.80;;
5355;SDS011;70449;52.486;13.386;2023-11-19T10:06:03;8.97;;;3.70;;
5355;SDS011;70449;52.486;13.386;2023-11-19T10:08:33;4.37;;;2.83;;
5355;SDS011;70449;52.486;13.386;2023-11-19T10:11:04;7.17;;;3.27;;
5355;SDS011;70449;52.486;13.386;2023-11-19T10:13:32;5.40;;;3.07;;
5355;SDS011;70449;52.486;13.386;2023-11-19T10:16:04;3.67;;;2.50;;
5355;SDS011;70449;52.486;13.386;2023-11-19T10:18:44;5.00;;;2.63;;
5355;SDS011;70449;52.486;13.386;2023-11-19T10:21:12;2.50;;;1.97;;
5355;SDS011;70449;52.486;13.386;2023-11-19T10:23:50;5.53;;;2.40;;
5355;SDS011;70449;52.486;13.386;2023-11-19T10:26:19;6.40;;;2.27;;
5355;SDS011;70449;52.486;13.386;2023-11-19T10:28:47;3.87;;;2.70;;
5355;SDS011;70449;52.486;13.386;2023-11-19T10:31:15;4.13;;;2.23;;
5355;SDS011;70449;52.486;13.386;2023-11-19T10:33:44;3.23;;;2.40;;
5355;SDS011;70449;52.486;13.386;2023-11-19T10:36:12;14.03;;;2.30;;
5355;SDS011;70449;52.486;13.386;2023-11-19T10:38:40;11.17;;;2.90;;
5355;SDS011;70449;52.486;13.386;2023-11-19T10:41:27;8.60;;;2.93;;
5355;SDS011;70449;52.486;13.386;2023-11-19T10:43:55;9.90;;;2.50;;
5355;SDS011;70449;52.486;13.386;2023-11-19T10:46:23;9.30;;;2.37;;
5355;SDS011;70449;52.486;13.386;2023-11-19T10:49:05;8.90;;;2.90;;
5355;SDS011;70449;52.486;13.386;2023-11-19T10:51:33;9.33;;;2.37;;
5355;SDS011;70449;52.486;13.386;2023-11-19T10:54:02;12.43;;;2.97;;
5355;SDS011;70449;52.486;13.386;2023-11-19T10:56:33;10.10;;;2.50;;
5355;SDS011;70449;52.486;13.386;2023-11-19T10:59:01;16.90;;;2.73;;
5355;SDS011;70449;52.486;13.386;2023-11-19T11:01:32;5.57;;;2.23;;
5355;SDS011;70449;52.486;13.386;2023-11-19T11:04:06;17.67;;;3.10;;
5355;SDS011;70449;52.486;13.386;2023-11-19T11:06:41;17.23;;;3.87;;
5355;SDS011;70449;52.486;13.386;2023-11-19T11:09:09;7.47;;;2.37;;
5355;SDS011;70449;52.486;13.386;2023-11-19T11:11:39;15.77;;;3.50;;
5355;SDS011;70449;52.486;13.386;2023-11-19T11:14:09;3.30;;;2.30;;
5355;SDS011;70449;52.486;13.386;2023-11-19T11:16:40;10.97;;;2.57;;
5355;SDS011;70449;52.486;13.386;2023-11-19T11:19:10;8.57;;;3.17;;
5355;SDS011;70449;52.486;13.386;2023-11-19T11:21:38;8.20;;;2.23;;
5355;SDS011;70449;52.486;13.386;2023-11-19T11:27:11;6.03;;;2.07;;
5355;SDS011;70449;52.486;13.386;2023-11-19T11:30:22;11.13;;;2.50;;
5355;SDS011;70449;52.486;13.386;2023-11-19T11:33:02;10.03;;;2.50;;
5355;SDS011;70449;52.486;13.386;2023-11-19T11:35:43;18.53;;;2.90;;
5355;SDS011;70449;52.486;13.386;2023-11-19T11:38:21;18.30;;;3.10;;
5355;SDS011;70449;52.486;13.386;2023-11-19T11:43:45;7.87;;;2.67;;
5355;SDS011;70449;52.486;13.386;2023-11-19T11:49:25;14.00;;;3.47;;
5355;SDS011;70449;52.486;13.386;2023-11-19T11:51:59;15.43;;;2.57;;
5355;SDS011;70449;52.486;13.386;2023-11-19T11:54:28;10.07;;;3.00;;
5355;SDS011;70449;52.486;13.386;2023-11-19T11:59:49;13.07;;;3.40;;
5355;SDS011;70449;52.486;13.386;2023-11-19T12:02:17;16.93;;;3.70;;
5355;SDS011;70449;52.486;13.386;2023-11-19T12:04:47;22.67;;;3.93;;
5355;SDS011;70449;52.486;13.386;2023-11-19T12:07:16;30.10;;;3.90;;
5355;SDS011;70449;52.486;13.386;2023-11-19T12:09:51;13.50;;;3.23;;
5355;SDS011;70449;52.486;13.386;2023-11-19T12:12:25;15.80;;;3.13;;
5355;SDS011;70449;52.486;13.386;2023-11-19T12:15:06;13.30;;;3.30;;
5355;SDS011;70449;52.486;13.386;2023-11-19T12:17:36;18.40;;;3.43;;
5355;SDS011;70449;52.486;13.386;2023-11-19T12:20:17;23.77;;;3.97;;
5355;SDS011;70449;52.486;13.386;2023-11-19T12:22:47;32.63;;;4.40;;
5355;SDS011;70449;52.486;13.386;2023-11-19T12:25:16;12.83;;;3.10;;
5355;SDS011;70449;52.486;13.386;2023-11-19T12:27:46;17.83;;;3.57;;
5355;SDS011;70449;52.486;13.386;2023-11-19T12:30:18;17.50;;;3.37;;
5355;SDS011;70449;52.486;13.386;2023-11-19T12:32:50;10.20;;;2.90;;
5355;SDS011;70449;52.486;13.386;2023-11-19T12:35:19;23.93;;;4.00;;
5355;SDS011;70449;52.486;13.386;2023-11-19T12:37:47;20.33;;;4.87;;
5355;SDS011;70449;52.486;13.386;2023-11-19T12:40:16;25.60;;;4.43;;
5355;SDS011;70449;52.486;13.386;2023-11-19T12:42:45;15.13;;;3.80;;
5355;SDS011;70449;52.486;13.386;2023-11-19T12:45:13;23.43;;;3.33;;
5355;SDS011;70449;52.486;13.386;2023-11-19T12:47:43;17.37;;;4.90;;
5355;SDS011;70449;52.486;13.386;2023-11-19T12:50:12;25.73;;;4.83;;
5355;SDS011;70449;52.486;13.386;2023-11-19T12:52:39;19.10;;;3.77;;
5355;SDS011;70449;52.486;13.386;2023-11-19T12:57:54;24.57;;;4.20;;
5355;SDS011;70449;52.486;13.386;2023-11-19T13:00:23;20.00;;;4.67;;
5355;SDS011;70449;52.486;13.386;2023-11-19T13:02:54;26.67;;;4.20;;
5355;SDS011;70449;52.486;13.386;2023-11-19T13:05:26;15.87;;;3.90;;
5355;SDS011;70449;52.486;13.386;2023-11-19T13:08:02;21.07;;;3.00;;
5355;SDS011;70449;52.486;13.386;2023-11-19T13:10:31;18.47;;;4.00;;
5355;SDS011;70449;52.486;13.386;2023-11-19T13:13:01;33.60;;;5.40;;
5355;SDS011;70449;52.486;13.386;2023-11-19T13:15:30;17.30;;;3.53;;
5355;SDS011;70449;52.486;13.386;2023-11-19T13:17:59;18.33;;;4.30;;
5355;SDS011;70449;52.486;13.386;2023-11-19T13:20:27;15.73;;;4.07;;
5355;SDS011;70449;52.486;13.386;2023-11-19T13:22:57;21.23;;;3.97;;
5355;SDS011;70449;52.486;13.386;2023-11-19T13:25:25;28.53;;;3.83;;
5355;SDS011;70449;52.486;13.386;2023-11-19T13:27:52;26.17;;;4.40;;
5355;SDS011;70449;52.486;13.386;2023-11-19T13:30:21;17.23;;;4.50;;
5355;SDS011;70449;52.486;13.386;2023-11-19T13:32:49;20.57;;;4.50;;
5355;SDS011;70449;52.486;13.386;2023-11-19T13:35:18;19.40;;;4.57;;
5355;SDS011;70449;52.486;13.386;2023-11-19T13:37:46;25.83;;;4.67;;
5355;SDS011;70449;52.486;13.386;2023-11-19T13:40:13;22.27;;;4.37;;
5355;SDS011;70449;52.486;13.386;2023-11-19T13:42:41;21.33;;;4.37;;
5355;SDS011;70449;52.486;13.386;2023-11-19T13:45:09;25.77;;;5.33;;
5355;SDS011;70449;52.486;13.386;2023-11-19T13:47:38;24.03;;;4.30;;
5355;SDS011;70449;52.486;13.386;2023-11-19T13:50:07;16.37;;;3.60;;
5355;SDS011;70449;52.486;13.386;2023-11-19T13:52:37;28.50;;;5.67;;
5355;SDS011;70449;52.486;13.386;2023-11-19T13:55:07;32.33;;;4.50;;
5355;SDS011;70449;52.486;13.386;2023-11-19T13:57:36;22.97;;;4.13;;
5355;SDS011;70449;52.486;13.386;2023-11-19T14:00:05;28.53;;;5.07;;
5355;SDS011;70449;52.486;13.386;2023-11-19T14:02:37;15.30;;;3.67;;
5355;SDS011;70449;52.486;13.386;2023-11-19T14:05:05;18.13;;;4.77;;
5355;SDS011;70449;52.486;13.386;2023-11-19T14:07:33;16.63;;;5.07;;
5355;SDS011;70449;52.486;13.386;2023-11-19T14:10:02;17.60;;;4.57;;
5355;SDS011;70449;52.486;13.386;2023-11-19T14:12:31;22.93;;;4.20;;
5355;SDS011;70449;52.486;13.386;2023-11-19T14:15:02;26.30;;;5.30;;
5355;SDS011;70449;52.486;13.386;2023-11-19T14:17:31;35.90;;;6.30;;
5355;SDS011;70449;52.486;13.386;2023-11-19T14:19:59;21.70;;;4.60;;
5355;SDS011;70449;52.486;13.386;2023-11-19T14:22:26;25.30;;;4.20;;
5355;SDS011;70449;52.486;13.386;2023-11-19T14:24:54;27.73;;;4.70;;
5355;SDS011;70449;52.486;13.386;2023-11-19T14:27:22;27.07;;;4.60;;
5355;SDS011;70449;52.486;13.386;2023-11-19T14:29:50;23.20;;;5.10;;
5355;SDS011;70449;52.486;13.386;2023-11-19T14:32:17;52.67;;;5.50;;
5355;SDS011;70449;52.486;13.386;2023-11-19T14:34:44;33.87;;;5.40;;
5355;SDS011;70449;52.486;13.386;2023-11-19T14:37:12;16.93;;;4.27;;
5355;SDS011;70449;52.486;13.386;2023-11-19T14:39:39;25.43;;;5.50;;
5355;SDS011;70449;52.486;13.386;2023-11-19T14:42:09;18.23;;;4.70;;
5355;SDS011;70449;52.486;13.386;2023-11-19T14:44:37;18.53;;;5.17;;
5355;SDS011;70449;52.486;13.386;2023-11-19T14:47:05;36.33;;;4.97;;
5355;SDS011;70449;52.486;13.386;2023-11-19T14:49:34;31.83;;;4.87;;
5355;SDS011;70449;52.486;13.386;2023-11-19T14:52:02;14.80;;;4.00;;
5355;SDS011;70449;52.486;13.386;2023-11-19T14:54:31;25.77;;;5.80;;
5355;SDS011;70449;52.486;13.386;2023-11-19T14:56:58;38.87;;;4.60;;
5355;SDS011;70449;52.486;13.386;2023-11-19T14:59:25;27.07;;;4.30;;
5355;SDS011;70449;52.486;13.386;2023-11-19T15:01:54;38.07;;;5.30;;
5355;SDS011;70449;52.486;13.386;2023-11-19T15:04:22;28.33;;;6.80;;
5355;SDS011;70449;52.486;13.386;2023-11-19T15:06:49;29.07;;;4.90;;